Hatley, WI (54440)

1:35 AM CST on February 10, 2016 (GMT -0600)
Weston Weather Station | | Change Station
CLOSE
Current Station
Personal Weather Station
Location: Weston, WI
Elevation: 1214 ft
Nearby Weather Stations

Elev 1214 ft 44.91 °N, 89.55 °W | Updated 9 minutes ago

Overcast
Overcast
7.9 °F
Feels Like 8 °F
N
2.2
Wind Variable Wind from NW

Today
High -- | Low -- °F
--% Chance of Precip.
Yesterday
High -- | Low -- °F
Precip. -- in
Pressure 29.94 in
Visibility 10.0 miles
Clouds Overcast 2900 ft
Windchill 8 °F
Dew Point 3 °F
Humidity 80%
Rainfall 0.00 in
Snow Depth Not available.
7:05 AM 5:18 PM
Waxing Crescent, 4% visible
SPECI KAUW 100726Z AUTO 32010KT 10SM OVC029 M13/M18 A2994 RMK AO2 T11281178
Pressure 29.94 in
Visibility 10.0 miles
Clouds Overcast 2900 ft
Windchill 8 °F
Dew Point 3 °F
Humidity 80%
Rainfall 0.00 in
Snow Depth Not available.
7:05 AM 5:18 PM
Waxing Crescent, 4% visible
SPECI KAUW 100726Z AUTO 32010KT 10SM OVC029 M13/M18 A2994 RMK AO2 T11281178

10-Day Weather Forecast

Almanac

Astronomy

Feb. 10, 2016 Rise Set
Actual Time
Civil Twilight
Nautical Twilight
Astronomical Twilight
Moon
Length of Visible Light
Length of Day
Tomorrow will be .
, % of the Moon is Illuminated

Today's Extremes

State Highs State Lows

Community

WunderPhotos

Upload Photos

1,891,826 photos uploaded!

WunderBlog® & News

Nearby

Air Quality

  Air Quality AQ Index Pollutant
Not available.

Snow Depth

Station Depth Elevation

Earthquake Activity

City Distance Mag. Time & Date
Minimum magnitude displayed is 2.5.

Coastal Water Temperatures

Place Temperature

Stations

Nearby Weather Stations

Station Location Temp. Windchill Dew Point Humidity Wind Precip. Elev Updated Type
                   

Watches & Warnings

There are currently no watches in effect.